sensor_id;sensor_type;location;lat;lon;timestamp;P1;durP1;ratioP1;P2;durP2;ratioP2
2021;SDS011;1015;49.756;6.994;2023-11-21T00:00:29;1.70;;;1.60;;
2021;SDS011;1015;49.756;6.994;2023-11-21T00:02:56;2.17;;;1.60;;
2021;SDS011;1015;49.756;6.994;2023-11-21T00:05:23;1.70;;;1.60;;
2021;SDS011;1015;49.756;6.994;2023-11-21T00:07:50;2.70;;;2.50;;
2021;SDS011;1015;49.756;6.994;2023-11-21T00:10:19;3.10;;;2.80;;
2021;SDS011;1015;49.756;6.994;2023-11-21T00:12:46;2.43;;;2.23;;
2021;SDS011;1015;49.756;6.994;2023-11-21T00:15:13;2.90;;;2.60;;
2021;SDS011;1015;49.756;6.994;2023-11-21T00:17:40;3.30;;;2.53;;
2021;SDS011;1015;49.756;6.994;2023-11-21T00:20:08;2.80;;;2.60;;
2021;SDS011;1015;49.756;6.994;2023-11-21T00:22:37;3.17;;;2.87;;
2021;SDS011;1015;49.756;6.994;2023-11-21T00:25:05;4.47;;;3.60;;
2021;SDS011;1015;49.756;6.994;2023-11-21T00:27:35;5.30;;;3.63;;
2021;SDS011;1015;49.756;6.994;2023-11-21T00:30:02;4.23;;;3.77;;
2021;SDS011;1015;49.756;6.994;2023-11-21T00:32:30;4.77;;;3.97;;
2021;SDS011;1015;49.756;6.994;2023-11-21T00:34:57;6.70;;;4.53;;
2021;SDS011;1015;49.756;6.994;2023-11-21T00:37:25;4.97;;;4.20;;
2021;SDS011;1015;49.756;6.994;2023-11-21T00:39:52;6.93;;;5.20;;
2021;SDS011;1015;49.756;6.994;2023-11-21T00:42:19;4.60;;;4.10;;
2021;SDS011;1015;49.756;6.994;2023-11-21T00:44:49;7.00;;;4.77;;
2021;SDS011;1015;49.756;6.994;2023-11-21T00:47:16;7.07;;;5.30;;
2021;SDS011;1015;49.756;6.994;2023-11-21T00:49:43;8.83;;;5.97;;
2021;SDS011;1015;49.756;6.994;2023-11-21T00:52:10;9.40;;;6.50;;
2021;SDS011;1015;49.756;6.994;2023-11-21T00:54:37;8.73;;;6.20;;
2021;SDS011;1015;49.756;6.994;2023-11-21T00:57:04;10.53;;;6.40;;
2021;SDS011;1015;49.756;6.994;2023-11-21T00:59:33;8.90;;;5.93;;
2021;SDS011;1015;49.756;6.994;2023-11-21T01:02:02;8.17;;;5.30;;
2021;SDS011;1015;49.756;6.994;2023-11-21T01:04:30;7.23;;;5.00;;
2021;SDS011;1015;49.756;6.994;2023-11-21T01:06:57;7.50;;;5.50;;
2021;SDS011;1015;49.756;6.994;2023-11-21T01:09:24;6.97;;;4.97;;
2021;SDS011;1015;49.756;6.994;2023-11-21T01:11:53;6.10;;;4.70;;
2021;SDS011;1015;49.756;6.994;2023-11-21T01:14:20;4.73;;;3.73;;
2021;SDS011;1015;49.756;6.994;2023-11-21T01:16:47;4.80;;;4.10;;
2021;SDS011;1015;49.756;6.994;2023-11-21T01:19:15;5.00;;;3.87;;
2021;SDS011;1015;49.756;6.994;2023-11-21T01:21:42;5.40;;;3.80;;
2021;SDS011;1015;49.756;6.994;2023-11-21T01:24:10;4.03;;;3.10;;
2021;SDS011;1015;49.756;6.994;2023-11-21T01:26:37;2.73;;;2.33;;
2021;SDS011;1015;49.756;6.994;2023-11-21T01:29:04;4.33;;;3.33;;
2021;SDS011;1015;49.756;6.994;2023-11-21T01:31:31;3.93;;;3.10;;
2021;SDS011;1015;49.756;6.994;2023-11-21T01:33:58;3.63;;;3.23;;
2021;SDS011;1015;49.756;6.994;2023-11-21T01:36:31;4.30;;;3.53;;
2021;SDS011;1015;49.756;6.994;2023-11-21T01:38:58;4.73;;;3.70;;
2021;SDS011;1015;49.756;6.994;2023-11-21T01:41:25;4.33;;;3.50;;
2021;SDS011;1015;49.756;6.994;2023-11-21T01:43:53;4.77;;;3.37;;
2021;SDS011;1015;49.756;6.994;2023-11-21T01:46:20;9.50;;;3.77;;
2021;SDS011;1015;49.756;6.994;2023-11-21T01:48:48;5.00;;;2.87;;
2021;SDS011;1015;49.756;6.994;2023-11-21T01:51:15;4.20;;;3.37;;
2021;SDS011;1015;49.756;6.994;2023-11-21T01:53:44;4.13;;;2.83;;
2021;SDS011;1015;49.756;6.994;2023-11-21T01:56:12;3.97;;;2.87;;
2021;SDS011;1015;49.756;6.994;2023-11-21T01:58:40;3.13;;;2.60;;
2021;SDS011;1015;49.756;6.994;2023-11-21T02:01:07;4.23;;;2.80;;
2021;SDS011;1015;49.756;6.994;2023-11-21T02:03:34;3.70;;;3.00;;
2021;SDS011;1015;49.756;6.994;2023-11-21T02:06:02;2.67;;;2.47;;
2021;SDS011;1015;49.756;6.994;2023-11-21T02:08:29;5.20;;;4.07;;
2021;SDS011;1015;49.756;6.994;2023-11-21T02:10:57;3.30;;;3.00;;
2021;SDS011;1015;49.756;6.994;2023-11-21T02:13:25;3.30;;;3.00;;
2021;SDS011;1015;49.756;6.994;2023-11-21T02:15:52;3.50;;;3.20;;
2021;SDS011;1015;49.756;6.994;2023-11-21T02:18:19;3.00;;;2.60;;
2021;SDS011;1015;49.756;6.994;2023-11-21T02:20:47;2.67;;;2.47;;
2021;SDS011;1015;49.756;6.994;2023-11-21T02:23:15;3.97;;;2.90;;
2021;SDS011;1015;49.756;6.994;2023-11-21T02:25:43;2.77;;;2.43;;
2021;SDS011;1015;49.756;6.994;2023-11-21T02:28:10;4.20;;;2.80;;
2021;SDS011;1015;49.756;6.994;2023-11-21T02:30:40;2.63;;;2.43;;
2021;SDS011;1015;49.756;6.994;2023-11-21T02:33:07;4.22;;;2.90;;
2021;SDS011;1015;49.756;6.994;2023-11-21T02:35:34;3.30;;;2.53;;
2021;SDS011;1015;49.756;6.994;2023-11-21T02:38:03;2.77;;;2.57;;
2021;SDS011;1015;49.756;6.994;2023-11-21T02:40:32;2.50;;;2.30;;
2021;SDS011;1015;49.756;6.994;2023-11-21T02:42:59;2.43;;;2.23;;
2021;SDS011;1015;49.756;6.994;2023-11-21T02:45:27;2.10;;;1.90;;
2021;SDS011;1015;49.756;6.994;2023-11-21T02:47:54;3.10;;;1.77;;
2021;SDS011;1015;49.756;6.994;2023-11-21T02:50:21;2.37;;;2.17;;
2021;SDS011;1015;49.756;6.994;2023-11-21T02:52:48;1.90;;;1.80;;
2021;SDS011;1015;49.756;6.994;2023-11-21T02:55:16;1.70;;;1.60;;
2021;SDS011;1015;49.756;6.994;2023-11-21T02:57:44;2.10;;;1.90;;
2021;SDS011;1015;49.756;6.994;2023-11-21T03:00:11;1.77;;;1.67;;
2021;SDS011;1015;49.756;6.994;2023-11-21T03:02:40;1.93;;;1.60;;
2021;SDS011;1015;49.756;6.994;2023-11-21T03:05:07;1.43;;;1.33;;
2021;SDS011;1015;49.756;6.994;2023-11-21T03:07:35;1.27;;;1.17;;
2021;SDS011;1015;49.756;6.994;2023-11-21T03:10:02;1.53;;;1.43;;
2021;SDS011;1015;49.756;6.994;2023-11-21T03:12:30;2.10;;;1.20;;
2021;SDS011;1015;49.756;6.994;2023-11-21T03:14:58;1.23;;;1.13;;
2021;SDS011;1015;49.756;6.994;2023-11-21T03:17:26;1.60;;;1.50;;
2021;SDS011;1015;49.756;6.994;2023-11-21T03:19:54;2.73;;;1.27;;
2021;SDS011;1015;49.756;6.994;2023-11-21T03:22:22;3.40;;;1.30;;
2021;SDS011;1015;49.756;6.994;2023-11-21T03:24:49;1.27;;;1.17;;
2021;SDS011;1015;49.756;6.994;2023-11-21T03:27:16;1.57;;;1.27;;
2021;SDS011;1015;49.756;6.994;2023-11-21T03:29:43;1.40;;;1.30;;
2021;SDS011;1015;49.756;6.994;2023-11-21T03:32:13;2.13;;;1.93;;
2021;SDS011;1015;49.756;6.994;2023-11-21T03:34:52;2.83;;;1.60;;
2021;SDS011;1015;49.756;6.994;2023-11-21T03:37:20;2.72;;;1.80;;
2021;SDS011;1015;49.756;6.994;2023-11-21T03:39:47;2.80;;;2.00;;
2021;SDS011;1015;49.756;6.994;2023-11-21T03:42:14;1.73;;;1.63;;
2021;SDS011;1015;49.756;6.994;2023-11-21T03:44:42;1.60;;;1.50;;
2021;SDS011;1015;49.756;6.994;2023-11-21T03:47:09;1.47;;;1.37;;
2021;SDS011;1015;49.756;6.994;2023-11-21T03:49:37;1.67;;;1.50;;
2021;SDS011;1015;49.756;6.994;2023-11-21T03:52:05;4.23;;;1.80;;
2021;SDS011;1015;49.756;6.994;2023-11-21T03:54:34;2.10;;;1.63;;
2021;SDS011;1015;49.756;6.994;2023-11-21T03:57:01;2.27;;;1.83;;
2021;SDS011;1015;49.756;6.994;2023-11-21T03:59:28;2.23;;;2.03;;
2021;SDS011;1015;49.756;6.994;2023-11-21T04:01:55;1.80;;;1.53;;
2021;SDS011;1015;49.756;6.994;2023-11-21T04:04:22;2.03;;;1.83;;
2021;SDS011;1015;49.756;6.994;2023-11-21T04:06:51;1.60;;;1.50;;
2021;SDS011;1015;49.756;6.994;2023-11-21T04:09:18;1.70;;;1.60;;
2021;SDS011;1015;49.756;6.994;2023-11-21T04:11:49;2.67;;;2.07;;
2021;SDS011;1015;49.756;6.994;2023-11-21T04:14:16;2.07;;;1.80;;
2021;SDS011;1015;49.756;6.994;2023-11-21T04:16:43;2.10;;;1.70;;
2021;SDS011;1015;49.756;6.994;2023-11-21T04:19:10;2.33;;;1.90;;
2021;SDS011;1015;49.756;6.994;2023-11-21T04:21:39;2.00;;;1.80;;
2021;SDS011;1015;49.756;6.994;2023-11-21T04:24:08;2.30;;;1.80;;
2021;SDS011;1015;49.756;6.994;2023-11-21T04:26:35;1.93;;;1.73;;
2021;SDS011;1015;49.756;6.994;2023-11-21T04:29:02;2.70;;;2.00;;
2021;SDS011;1015;49.756;6.994;2023-11-21T04:31:29;2.00;;;1.70;;
2021;SDS011;1015;49.756;6.994;2023-11-21T04:33:56;2.97;;;1.90;;
2021;SDS011;1015;49.756;6.994;2023-11-21T04:36:24;2.20;;;2.00;;
2021;SDS011;1015;49.756;6.994;2023-11-21T04:38:51;2.63;;;2.40;;
2021;SDS011;1015;49.756;6.994;2023-11-21T04:41:19;2.35;;;2.13;;
2021;SDS011;1015;49.756;6.994;2023-11-21T04:43:46;2.90;;;2.43;;
2021;SDS011;1015;49.756;6.994;2023-11-21T04:46:14;2.20;;;2.00;;
2021;SDS011;1015;49.756;6.994;2023-11-21T04:48:41;2.00;;;1.90;;
2021;SDS011;1015;49.756;6.994;2023-11-21T04:51:08;2.07;;;1.87;;
2021;SDS011;1015;49.756;6.994;2023-11-21T04:53:36;2.50;;;2.30;;
2021;SDS011;1015;49.756;6.994;2023-11-21T04:56:04;2.50;;;2.30;;
2021;SDS011;1015;49.756;6.994;2023-11-21T04:58:33;2.10;;;1.90;;
2021;SDS011;1015;49.756;6.994;2023-11-21T05:01:00;2.20;;;1.87;;
2021;SDS011;1015;49.756;6.994;2023-11-21T05:03:28;2.43;;;2.20;;
2021;SDS011;1015;49.756;6.994;2023-11-21T05:05:57;3.10;;;2.40;;
2021;SDS011;1015;49.756;6.994;2023-11-21T05:08:24;3.27;;;2.90;;
2021;SDS011;1015;49.756;6.994;2023-11-21T05:10:52;2.90;;;2.60;;
2021;SDS011;1015;49.756;6.994;2023-11-21T05:13:19;2.80;;;2.53;;
2021;SDS011;1015;49.756;6.994;2023-11-21T05:15:49;2.97;;;2.67;;
2021;SDS011;1015;49.756;6.994;2023-11-21T05:18:16;2.50;;;2.10;;
2021;SDS011;1015;49.756;6.994;2023-11-21T05:20:43;2.90;;;2.50;;
2021;SDS011;1015;49.756;6.994;2023-11-21T05:23:10;3.37;;;2.60;;
2021;SDS011;1015;49.756;6.994;2023-11-21T05:25:37;3.58;;;2.70;;
2021;SDS011;1015;49.756;6.994;2023-11-21T05:28:04;3.13;;;2.73;;
2021;SDS011;1015;49.756;6.994;2023-11-21T05:30:31;4.35;;;3.20;;
2021;SDS011;1015;49.756;6.994;2023-11-21T05:33:00;4.43;;;3.27;;
2021;SDS011;1015;49.756;6.994;2023-11-21T05:35:27;7.10;;;4.03;;
2021;SDS011;1015;49.756;6.994;2023-11-21T05:37:54;4.40;;;3.67;;
2021;SDS011;1015;49.756;6.994;2023-11-21T05:40:21;5.20;;;3.63;;
2021;SDS011;1015;49.756;6.994;2023-11-21T05:42:48;4.67;;;3.40;;
2021;SDS011;1015;49.756;6.994;2023-11-21T05:45:16;3.78;;;3.20;;
2021;SDS011;1015;49.756;6.994;2023-11-21T05:47:44;4.67;;;3.70;;
2021;SDS011;1015;49.756;6.994;2023-11-21T05:50:13;3.20;;;2.60;;
2021;SDS011;1015;49.756;6.994;2023-11-21T05:52:41;4.37;;;3.30;;
2021;SDS011;1015;49.756;6.994;2023-11-21T05:55:08;3.87;;;3.40;;
2021;SDS011;1015;49.756;6.994;2023-11-21T05:57:36;4.00;;;3.03;;
2021;SDS011;1015;49.756;6.994;2023-11-21T06:00:03;4.47;;;3.53;;
2021;SDS011;1015;49.756;6.994;2023-11-21T06:02:36;5.10;;;3.40;;
2021;SDS011;1015;49.756;6.994;2023-11-21T06:05:04;3.93;;;2.90;;
2021;SDS011;1015;49.756;6.994;2023-11-21T06:07:32;3.07;;;2.77;;
2021;SDS011;1015;49.756;6.994;2023-11-21T06:10:00;7.30;;;2.53;;
2021;SDS011;1015;49.756;6.994;2023-11-21T06:12:28;4.35;;;2.63;;
2021;SDS011;1015;49.756;6.994;2023-11-21T06:14:55;2.10;;;1.80;;
2021;SDS011;1015;49.756;6.994;2023-11-21T06:17:22;1.93;;;1.73;;
2021;SDS011;1015;49.756;6.994;2023-11-21T06:19:50;2.17;;;1.73;;
2021;SDS011;1015;49.756;6.994;2023-11-21T06:22:18;1.50;;;1.30;;
2021;SDS011;1015;49.756;6.994;2023-11-21T06:24:46;1.43;;;1.30;;
2021;SDS011;1015;49.756;6.994;2023-11-21T06:27:13;1.70;;;1.60;;
2021;SDS011;1015;49.756;6.994;2023-11-21T06:32:40;2.83;;;1.83;;
2021;SDS011;1015;49.756;6.994;2023-11-21T06:35:10;2.67;;;1.77;;
2021;SDS011;1015;49.756;6.994;2023-11-21T06:37:38;2.50;;;2.00;;
2021;SDS011;1015;49.756;6.994;2023-11-21T06:40:07;1.97;;;1.87;;
2021;SDS011;1015;49.756;6.994;2023-11-21T06:42:35;2.17;;;1.97;;
2021;SDS011;1015;49.756;6.994;2023-11-21T06:45:03;2.20;;;1.92;;
2021;SDS011;1015;49.756;6.994;2023-11-21T06:47:30;2.90;;;1.70;;
2021;SDS011;1015;49.756;6.994;2023-11-21T06:49:58;2.13;;;1.90;;
2021;SDS011;1015;49.756;6.994;2023-11-21T06:52:25;2.23;;;2.00;;
2021;SDS011;1015;49.756;6.994;2023-11-21T06:54:52;2.27;;;2.07;;
2021;SDS011;1015;49.756;6.994;2023-11-21T06:57:22;2.20;;;2.00;;
2021;SDS011;1015;49.756;6.994;2023-11-21T06:59:49;3.20;;;2.40;;
2021;SDS011;1015;49.756;6.994;2023-11-21T07:02:16;2.53;;;2.30;;
2021;SDS011;1015;49.756;6.994;2023-11-21T07:04:44;2.63;;;2.20;;
2021;SDS011;1015;49.756;6.994;2023-11-21T07:07:11;3.42;;;2.80;;
2021;SDS011;1015;49.756;6.994;2023-11-21T07:09:38;2.80;;;2.30;;
2021;SDS011;1015;49.756;6.994;2023-11-21T07:12:06;4.17;;;2.80;;
2021;SDS011;1015;49.756;6.994;2023-11-21T07:14:34;3.40;;;2.47;;
2021;SDS011;1015;49.756;6.994;2023-11-21T07:17:02;3.03;;;2.73;;
2021;SDS011;1015;49.756;6.994;2023-11-21T07:19:29;4.20;;;3.03;;
2021;SDS011;1015;49.756;6.994;2023-11-21T07:21:56;3.37;;;2.50;;
2021;SDS011;1015;49.756;6.994;2023-11-21T07:24:23;4.30;;;3.07;;
2021;SDS011;1015;49.756;6.994;2023-11-21T07:26:51;3.00;;;2.60;;
2021;SDS011;1015;49.756;6.994;2023-11-21T07:29:22;4.53;;;3.13;;
2021;SDS011;1015;49.756;6.994;2023-11-21T07:31:52;3.33;;;2.80;;
2021;SDS011;1015;49.756;6.994;2023-11-21T07:34:19;3.13;;;2.83;;
2021;SDS011;1015;49.756;6.994;2023-11-21T07:36:46;3.10;;;2.77;;
2021;SDS011;1015;49.756;6.994;2023-11-21T07:39:13;3.00;;;2.70;;
2021;SDS011;1015;49.756;6.994;2023-11-21T07:41:41;3.13;;;2.83;;
2021;SDS011;1015;49.756;6.994;2023-11-21T07:44:13;4.87;;;3.07;;
2021;SDS011;1015;49.756;6.994;2023-11-21T07:46:40;3.20;;;2.90;;
2021;SDS011;1015;49.756;6.994;2023-11-21T07:49:09;3.57;;;2.40;;
2021;SDS011;1015;49.756;6.994;2023-11-21T07:51:36;4.40;;;2.93;;
2021;SDS011;1015;49.756;6.994;2023-11-21T07:54:03;3.57;;;3.27;;
2021;SDS011;1015;49.756;6.994;2023-11-21T07:56:31;3.83;;;3.20;;
2021;SDS011;1015;49.756;6.994;2023-11-21T07:58:58;4.83;;;3.70;;
2021;SDS011;1015;49.756;6.994;2023-11-21T08:01:25;4.57;;;3.70;;
2021;SDS011;1015;49.756;6.994;2023-11-21T08:03:53;4.60;;;3.47;;
2021;SDS011;1015;49.756;6.994;2023-11-21T08:06:23;4.60;;;3.87;;
2021;SDS011;1015;49.756;6.994;2023-11-21T08:08:50;5.53;;;4.03;;
2021;SDS011;1015;49.756;6.994;2023-11-21T08:11:17;5.20;;;4.47;;
2021;SDS011;1015;49.756;6.994;2023-11-21T08:13:46;7.43;;;5.80;;
2021;SDS011;1015;49.756;6.994;2023-11-21T08:16:14;8.97;;;7.00;;
2021;SDS011;1015;49.756;6.994;2023-11-21T08:18:41;8.57;;;6.40;;
2021;SDS011;1015;49.756;6.994;2023-11-21T08:21:09;5.20;;;4.63;;
2021;SDS011;1015;49.756;6.994;2023-11-21T08:23:38;5.50;;;4.77;;
2021;SDS011;1015;49.756;6.994;2023-11-21T08:26:05;7.97;;;5.07;;
2021;SDS011;1015;49.756;6.994;2023-11-21T08:28:33;7.40;;;4.87;;
2021;SDS011;1015;49.756;6.994;2023-11-21T08:31:01;5.80;;;5.00;;
2021;SDS011;1015;49.756;6.994;2023-11-21T08:33:29;5.47;;;4.27;;
2021;SDS011;1015;49.756;6.994;2023-11-21T08:35:56;8.23;;;4.70;;
2021;SDS011;1015;49.756;6.994;2023-11-21T08:38:23;6.63;;;4.77;;
2021;SDS011;1015;49.756;6.994;2023-11-21T08:40:52;6.67;;;5.57;;
2021;SDS011;1015;49.756;6.994;2023-11-21T08:43:19;6.63;;;5.60;;
2021;SDS011;1015;49.756;6.994;2023-11-21T08:45:46;14.20;;;5.73;;
2021;SDS011;1015;49.756;6.994;2023-11-21T08:48:13;5.10;;;4.60;;
2021;SDS011;1015;49.756;6.994;2023-11-21T08:50:40;5.50;;;4.80;;
2021;SDS011;1015;49.756;6.994;2023-11-21T08:53:07;6.17;;;5.00;;
2021;SDS011;1015;49.756;6.994;2023-11-21T08:55:36;7.17;;;5.27;;
2021;SDS011;1015;49.756;6.994;2023-11-21T08:58:04;8.00;;;5.90;;
2021;SDS011;1015;49.756;6.994;2023-11-21T09:00:32;6.63;;;5.53;;
2021;SDS011;1015;49.756;6.994;2023-11-21T09:03:00;10.50;;;5.50;;
2021;SDS011;1015;49.756;6.994;2023-11-21T09:05:28;7.57;;;5.50;;
2021;SDS011;1015;49.756;6.994;2023-11-21T09:07:55;7.20;;;5.90;;
2021;SDS011;1015;49.756;6.994;2023-11-21T09:10:23;9.00;;;7.37;;
2021;SDS011;1015;49.756;6.994;2023-11-21T09:12:50;6.93;;;5.67;;
2021;SDS011;1015;49.756;6.994;2023-11-21T09:15:19;7.87;;;6.87;;
2021;SDS011;1015;49.756;6.994;2023-11-21T09:17:46;7.13;;;5.20;;
2021;SDS011;1015;49.756;6.994;2023-11-21T09:20:14;8.60;;;6.90;;
2021;SDS011;1015;49.756;6.994;2023-11-21T09:22:40;9.37;;;7.07;;
2021;SDS011;1015;49.756;6.994;2023-11-21T09:25:09;5.83;;;4.83;;
2021;SDS011;1015;49.756;6.994;2023-11-21T09:27:37;5.10;;;4.20;;
2021;SDS011;1015;49.756;6.994;2023-11-21T09:30:14;7.17;;;5.47;;
2021;SDS011;1015;49.756;6.994;2023-11-21T09:32:43;7.07;;;5.30;;
2021;SDS011;1015;49.756;6.994;2023-11-21T09:35:10;7.07;;;5.30;;
2021;SDS011;1015;49.756;6.994;2023-11-21T09:37:39;6.63;;;4.93;;
2021;SDS011;1015;49.756;6.994;2023-11-21T09:40:06;7.28;;;5.68;;
2021;SDS011;1015;49.756;6.994;2023-11-21T09:42:38;5.73;;;4.83;;
2021;SDS011;1015;49.756;6.994;2023-11-21T09:45:08;7.43;;;6.50;;
2021;SDS011;1015;49.756;6.994;2023-11-21T09:47:39;7.57;;;5.57;;
2021;SDS011;1015;49.756;6.994;2023-11-21T09:50:08;8.70;;;6.87;;
2021;SDS011;1015;49.756;6.994;2023-11-21T09:52:38;8.10;;;5.93;;
2021;SDS011;1015;49.756;6.994;2023-11-21T09:55:09;7.27;;;5.50;;
2021;SDS011;1015;49.756;6.994;2023-11-21T09:57:40;7.10;;;5.23;;
2021;SDS011;1015;49.756;6.994;2023-11-21T10:00:08;6.93;;;5.37;;
2021;SDS011;1015;49.756;6.994;2023-11-21T10:02:37;6.70;;;5.90;;
2021;SDS011;1015;49.756;6.994;2023-11-21T10:05:06;8.50;;;5.80;;
2021;SDS011;1015;49.756;6.994;2023-11-21T10:07:36;6.17;;;5.37;;
2021;SDS011;1015;49.756;6.994;2023-11-21T10:10:03;6.60;;;5.20;;
2021;SDS011;1015;49.756;6.994;2023-11-21T10:12:31;7.50;;;6.70;;
2021;SDS011;1015;49.756;6.994;2023-11-21T10:15:00;6.93;;;5.30;;
2021;SDS011;1015;49.756;6.994;2023-11-21T10:17:28;7.10;;;5.63;;
2021;SDS011;1015;49.756;6.994;2023-11-21T10:20:04;6.50;;;5.43;;
2021;SDS011;1015;49.756;6.994;2023-11-21T10:22:37;5.28;;;4.00;;
2021;SDS011;1015;49.756;6.994;2023-11-21T10:25:06;7.50;;;5.17;;
2021;SDS011;1015;49.756;6.994;2023-11-21T10:27:33;7.07;;;5.50;;
2021;SDS011;1015;49.756;6.994;2023-11-21T10:30:01;11.33;;;6.57;;
2021;SDS011;1015;49.756;6.994;2023-11-21T10:32:29;5.63;;;4.90;;
2021;SDS011;1015;49.756;6.994;2023-11-21T10:34:58;7.13;;;5.50;;
2021;SDS011;1015;49.756;6.994;2023-11-21T10:37:29;7.77;;;5.83;;
2021;SDS011;1015;49.756;6.994;2023-11-21T10:39:58;5.73;;;5.20;;
2021;SDS011;1015;49.756;6.994;2023-11-21T10:42:25;5.40;;;4.70;;
2021;SDS011;1015;49.756;6.994;2023-11-21T10:44:53;5.77;;;4.30;;
2021;SDS011;1015;49.756;6.994;2023-11-21T10:47:20;6.77;;;5.63;;
2021;SDS011;1015;49.756;6.994;2023-11-21T10:49:48;6.27;;;5.57;;
2021;SDS011;1015;49.756;6.994;2023-11-21T10:52:15;5.83;;;4.90;;
2021;SDS011;1015;49.756;6.994;2023-11-21T10:54:42;5.80;;;5.20;;
2021;SDS011;1015;49.756;6.994;2023-11-21T10:57:11;5.85;;;4.78;;
2021;SDS011;1015;49.756;6.994;2023-11-21T10:59:40;6.00;;;5.40;;
2021;SDS011;1015;49.756;6.994;2023-11-21T11:02:10;7.90;;;5.90;;
2021;SDS011;1015;49.756;6.994;2023-11-21T11:04:46;6.20;;;5.17;;
2021;SDS011;1015;49.756;6.994;2023-11-21T11:07:13;6.00;;;5.20;;
2021;SDS011;1015;49.756;6.994;2023-11-21T11:09:42;6.10;;;5.25;;
2021;SDS011;1015;49.756;6.994;2023-11-21T11:12:11;6.15;;;4.75;;
2021;SDS011;1015;49.756;6.994;2023-11-21T11:14:40;7.13;;;4.73;;
2021;SDS011;1015;49.756;6.994;2023-11-21T11:17:08;6.47;;;5.37;;
2021;SDS011;1015;49.756;6.994;2023-11-21T11:19:36;6.37;;;5.27;;
2021;SDS011;1015;49.756;6.994;2023-11-21T11:22:06;7.43;;;5.13;;
2021;SDS011;1015;49.756;6.994;2023-11-21T11:24:41;7.13;;;5.27;;
2021;SDS011;1015;49.756;6.994;2023-11-21T11:27:15;6.10;;;4.50;;
2021;SDS011;1015;49.756;6.994;2023-11-21T11:29:48;6.60;;;5.60;;
2021;SDS011;1015;49.756;6.994;2023-11-21T11:32:21;6.67;;;6.07;;
2021;SDS011;1015;49.756;6.994;2023-11-21T11:34:50;7.77;;;5.20;;
2021;SDS011;1015;49.756;6.994;2023-11-21T11:37:20;6.33;;;5.63;;
2021;SDS011;1015;49.756;6.994;2023-11-21T11:39:48;7.90;;;5.63;;
2021;SDS011;1015;49.756;6.994;2023-11-21T11:42:17;6.95;;;5.50;;
2021;SDS011;1015;49.756;6.994;2023-11-21T11:44:51;12.00;;;5.67;;
2021;SDS011;1015;49.756;6.994;2023-11-21T11:47:20;6.63;;;5.43;;
2021;SDS011;1015;49.756;6.994;2023-11-21T11:50:00;5.93;;;5.13;;
2021;SDS011;1015;49.756;6.994;2023-11-21T11:52:32;7.88;;;5.88;;
2021;SDS011;1015;49.756;6.994;2023-11-21T11:54:59;7.20;;;5.77;;
2021;SDS011;1015;49.756;6.994;2023-11-21T11:57:27;11.00;;;5.40;;
2021;SDS011;1015;49.756;6.994;2023-11-21T12:00:07;9.03;;;6.53;;
2021;SDS011;1015;49.756;6.994;2023-11-21T12:02:36;9.60;;;6.47;;
2021;SDS011;1015;49.756;6.994;2023-11-21T12:05:07;8.23;;;6.47;;
2021;SDS011;1015;49.756;6.994;2023-11-21T12:07:39;6.90;;;5.60;;
2021;SDS011;1015;49.756;6.994;2023-11-21T12:10:06;7.50;;;5.80;;
2021;SDS011;1015;49.756;6.994;2023-11-21T12:12:41;7.03;;;5.40;;
2021;SDS011;1015;49.756;6.994;2023-11-21T12:15:08;6.40;;;5.13;;
2021;SDS011;1015;49.756;6.994;2023-11-21T12:17:35;9.53;;;6.00;;
2021;SDS011;1015;49.756;6.994;2023-11-21T12:20:03;7.40;;;6.23;;
2021;SDS011;1015;49.756;6.994;2023-11-21T12:22:38;7.57;;;5.83;;
2021;SDS011;1015;49.756;6.994;2023-11-21T12:25:06;8.40;;;5.70;;
2021;SDS011;1015;49.756;6.994;2023-11-21T12:27:33;6.43;;;5.00;;
2021;SDS011;1015;49.756;6.994;2023-11-21T12:30:02;8.43;;;4.97;;
2021;SDS011;1015;49.756;6.994;2023-11-21T12:32:30;7.47;;;5.63;;
2021;SDS011;1015;49.756;6.994;2023-11-21T12:34:57;6.70;;;5.33;;
2021;SDS011;1015;49.756;6.994;2023-11-21T12:37:25;5.80;;;5.17;;
2021;SDS011;1015;49.756;6.994;2023-11-21T12:39:53;5.97;;;4.60;;
2021;SDS011;1015;49.756;6.994;2023-11-21T12:42:23;8.13;;;6.17;;
2021;SDS011;1015;49.756;6.994;2023-11-21T12:47:44;6.60;;;4.90;;
2021;SDS011;1015;49.756;6.994;2023-11-21T12:50:11;6.23;;;5.57;;
2021;SDS011;1015;49.756;6.994;2023-11-21T12:52:40;8.13;;;5.37;;
2021;SDS011;1015;49.756;6.994;2023-11-21T12:55:09;7.37;;;5.37;;
2021;SDS011;1015;49.756;6.994;2023-11-21T12:57:40;7.63;;;5.40;;
2021;SDS011;1015;49.756;6.994;2023-11-21T13:00:08;6.43;;;4.90;;
2021;SDS011;1015;49.756;6.994;2023-11-21T13:02:38;5.33;;;4.60;;
2021;SDS011;1015;49.756;6.994;2023-11-21T13:05:09;6.80;;;5.10;;
2021;SDS011;1015;49.756;6.994;2023-11-21T13:07:46;7.93;;;5.87;;
2021;SDS011;1015;49.756;6.994;2023-11-21T13:10:14;5.90;;;5.17;;
2021;SDS011;1015;49.756;6.994;2023-11-21T13:12:42;8.90;;;5.50;;
2021;SDS011;1015;49.756;6.994;2023-11-21T13:15:13;9.43;;;5.67;;
2021;SDS011;1015;49.756;6.994;2023-11-21T13:17:41;6.80;;;5.30;;
2021;SDS011;1015;49.756;6.994;2023-11-21T13:20:11;6.03;;;5.00;;
2021;SDS011;1015;49.756;6.994;2023-11-21T13:22:44;7.23;;;5.47;;
2021;SDS011;1015;49.756;6.994;2023-11-21T13:25:12;6.93;;;5.63;;
2021;SDS011;1015;49.756;6.994;2023-11-21T13:27:39;7.03;;;5.23;;
2021;SDS011;1015;49.756;6.994;2023-11-21T13:30:08;6.00;;;5.40;;
2021;SDS011;1015;49.756;6.994;2023-11-21T13:32:36;6.33;;;5.30;;
2021;SDS011;1015;49.756;6.994;2023-11-21T13:35:03;7.03;;;5.27;;
2021;SDS011;1015;49.756;6.994;2023-11-21T13:37:34;8.43;;;5.20;;
2021;SDS011;1015;49.756;6.994;2023-11-21T13:40:01;7.53;;;5.10;;
2021;SDS011;1015;49.756;6.994;2023-11-21T13:42:39;7.43;;;5.30;;
2021;SDS011;1015;49.756;6.994;2023-11-21T13:45:07;8.43;;;5.80;;
2021;SDS011;1015;49.756;6.994;2023-11-21T13:47:34;7.37;;;5.30;;
2021;SDS011;1015;49.756;6.994;2023-11-21T13:50:03;6.20;;;5.23;;
2021;SDS011;1015;49.756;6.994;2023-11-21T13:52:34;8.47;;;5.60;;
2021;SDS011;1015;49.756;6.994;2023-11-21T13:55:02;7.07;;;5.57;;
2021;SDS011;1015;49.756;6.994;2023-11-21T13:57:31;9.30;;;5.90;;
2021;SDS011;1015;49.756;6.994;2023-11-21T13:59:58;10.10;;;5.93;;
2021;SDS011;1015;49.756;6.994;2023-11-21T14:02:26;5.53;;;5.03;;
2021;SDS011;1015;49.756;6.994;2023-11-21T14:04:59;8.23;;;4.83;;
2021;SDS011;1015;49.756;6.994;2023-11-21T14:07:35;6.43;;;5.10;;
2021;SDS011;1015;49.756;6.994;2023-11-21T14:10:02;8.10;;;5.27;;
2021;SDS011;1015;49.756;6.994;2023-11-21T14:12:30;7.40;;;5.90;;
2021;SDS011;1015;49.756;6.994;2023-11-21T14:14:59;7.70;;;6.10;;
2021;SDS011;1015;49.756;6.994;2023-11-21T14:17:30;10.90;;;6.87;;
2021;SDS011;1015;49.756;6.994;2023-11-21T14:19:57;10.10;;;6.20;;
2021;SDS011;1015;49.756;6.994;2023-11-21T14:22:24;7.77;;;5.30;;
2021;SDS011;1015;49.756;6.994;2023-11-21T14:24:53;8.43;;;6.10;;
2021;SDS011;1015;49.756;6.994;2023-11-21T14:27:23;8.53;;;5.90;;
2021;SDS011;1015;49.756;6.994;2023-11-21T14:29:50;9.13;;;6.27;;
2021;SDS011;1015;49.756;6.994;2023-11-21T14:32:17;7.03;;;5.33;;
2021;SDS011;1015;49.756;6.994;2023-11-21T14:34:45;6.83;;;5.57;;
2021;SDS011;1015;49.756;6.994;2023-11-21T14:37:13;8.20;;;6.20;;
2021;SDS011;1015;49.756;6.994;2023-11-21T14:39:40;9.73;;;5.67;;
2021;SDS011;1015;49.756;6.994;2023-11-21T14:42:12;7.80;;;5.37;;
2021;SDS011;1015;49.756;6.994;2023-11-21T14:44:40;7.70;;;5.90;;
2021;SDS011;1015;49.756;6.994;2023-11-21T14:47:08;9.73;;;5.70;;
2021;SDS011;1015;49.756;6.994;2023-11-21T14:49:40;7.43;;;5.97;;
2021;SDS011;1015;49.756;6.994;2023-11-21T14:52:17;9.30;;;5.67;;
2021;SDS011;1015;49.756;6.994;2023-11-21T14:54:57;9.33;;;6.17;;
2021;SDS011;1015;49.756;6.994;2023-11-21T14:57:46;9.03;;;6.10;;
2021;SDS011;1015;49.756;6.994;2023-11-21T15:00:16;8.40;;;5.30;;
2021;SDS011;1015;49.756;6.994;2023-11-21T15:03:03;9.00;;;6.23;;
2021;SDS011;1015;49.756;6.994;2023-11-21T15:05:31;9.97;;;6.13;;
2021;SDS011;1015;49.756;6.994;2023-11-21T15:08:00;9.10;;;6.17;;
2021;SDS011;1015;49.756;6.994;2023-11-21T15:10:43;9.03;;;6.40;;
2021;SDS011;1015;49.756;6.994;2023-11-21T15:13:14;8.53;;;6.33;;
2021;SDS011;1015;49.756;6.994;2023-11-21T15:15:41;9.70;;;7.07;;
2021;SDS011;1015;49.756;6.994;2023-11-21T15:18:07;10.80;;;7.25;;
2021;SDS011;1015;49.756;6.994;2023-11-21T15:20:37;7.57;;;5.93;;
2021;SDS011;1015;49.756;6.994;2023-11-21T15:23:04;11.50;;;7.07;;
2021;SDS011;1015;49.756;6.994;2023-11-21T15:25:31;9.57;;;7.17;;
2021;SDS011;1015;49.756;6.994;2023-11-21T15:27:59;8.90;;;6.40;;